createdAt,value
2022-10-19T00:04:24.204Z,70.43
2022-10-19T00:09:26.113Z,70.88
2022-10-19T00:14:27.905Z,70.87
2022-10-19T00:19:29.741Z,70.84
2022-10-19T00:24:31.514Z,70.99
2022-10-19T00:29:33.272Z,70.55
2022-10-19T00:34:35.003Z,70.78
2022-10-19T00:39:36.810Z,70.76
2022-10-19T00:44:38.493Z,70.54
2022-10-19T00:49:44.293Z,70.50
2022-10-19T00:54:49.054Z,70.67
2022-10-19T00:59:51.854Z,70.67
2022-10-19T01:04:54.032Z,70.95
2022-10-19T01:09:56.273Z,70.36
2022-10-19T01:15:13.662Z,70.24
2022-10-19T01:20:46.203Z,70.00
2022-10-19T01:26:22.123Z,70.34
2022-10-19T01:31:42.243Z,70.30
2022-10-19T01:37:02.755Z,70.09
2022-10-19T01:42:24.014Z,70.55
2022-10-19T01:47:41.565Z,70.31
2022-10-19T01:52:44.193Z,69.99
2022-10-19T01:57:57.163Z,70.25
2022-10-19T02:03:00.763Z,70.50
2022-10-19T02:08:12.273Z,70.29
2022-10-19T02:13:16.646Z,70.76
2022-10-19T02:18:26.896Z,70.83
2022-10-19T02:23:28.725Z,71.00
2022-10-19T02:28:31.006Z,70.97
2022-10-19T02:33:32.975Z,70.97
2022-10-19T02:38:34.847Z,70.80
2022-10-19T02:43:40.138Z,71.00
2022-10-19T02:48:43.003Z,70.75
2022-10-19T02:53:44.781Z,70.29
2022-10-19T02:58:46.547Z,70.23
2022-10-19T03:03:48.616Z,70.17
2022-10-19T03:08:51.165Z,69.99
2022-10-19T03:13:52.955Z,70.77
2022-10-19T03:18:55.213Z,71.31
2022-10-19T03:23:56.975Z,71.09
2022-10-19T03:28:58.791Z,71.28
2022-10-19T03:34:00.583Z,70.80
2022-10-19T03:39:05.145Z,70.29
2022-10-19T03:44:07.743Z,70.91
2022-10-19T03:49:13.991Z,70.30
2022-10-19T03:54:17.410Z,70.78
2022-10-19T03:59:19.135Z,70.33
2022-10-19T04:04:20.960Z,70.50
2022-10-19T04:09:23.209Z,70.56
2022-10-19T04:14:32.430Z,69.93
2022-10-19T04:19:34.783Z,70.09
2022-10-19T04:24:36.540Z,70.64
2022-10-19T04:29:38.412Z,70.62
2022-10-19T04:34:40.289Z,70.76
2022-10-19T04:39:43.535Z,70.57
2022-10-19T04:44:45.354Z,70.30
2022-10-19T04:49:47.108Z,70.00
2022-10-19T04:54:48.836Z,70.29
2022-10-19T04:59:50.577Z,70.16
2022-10-19T05:04:52.330Z,69.92
2022-10-19T05:09:54.063Z,69.61
2022-10-19T05:14:55.808Z,70.20
2022-10-19T05:19:57.715Z,70.53
2022-10-19T05:24:59.475Z,71.06
2022-10-19T05:30:01.296Z,70.34
2022-10-19T05:35:03.165Z,70.83
2022-10-19T05:40:05.516Z,70.26
2022-10-19T05:45:07.646Z,70.19
2022-10-19T05:50:09.765Z,71.04
2022-10-19T05:55:11.625Z,70.71
2022-10-19T06:00:13.767Z,69.97
2022-10-19T06:05:15.555Z,69.18
2022-10-19T06:10:17.812Z,70.04
2022-10-19T06:15:19.551Z,70.12
2022-10-19T06:20:21.425Z,70.46
2022-10-19T06:25:23.279Z,70.39
2022-10-19T06:30:25.426Z,71.01
2022-10-19T06:35:27.769Z,70.93
2022-10-19T06:40:29.681Z,70.74
2022-10-19T06:45:35.682Z,70.38
2022-10-19T06:50:38.013Z,69.84
2022-10-19T06:55:39.825Z,69.70
2022-10-19T07:00:41.693Z,70.11
2022-10-19T07:05:43.535Z,69.94
2022-10-19T07:10:49.397Z,69.79
2022-10-19T07:16:05.807Z,69.84
2022-10-19T07:21:10.984Z,69.99
2022-10-19T07:26:15.909Z,69.75
2022-10-19T07:31:22.354Z,69.10
2022-10-19T07:36:25.466Z,69.45
2022-10-19T07:41:27.716Z,69.44
2022-10-19T07:46:33.715Z,69.26
2022-10-19T07:51:36.235Z,69.12
2022-10-19T07:56:38.104Z,68.77
2022-10-19T08:01:45.283Z,68.20
2022-10-19T08:06:47.230Z,68.42
2022-10-19T08:11:49.105Z,68.24
2022-10-19T08:16:51.537Z,67.69
2022-10-19T08:21:53.517Z,67.59
2022-10-19T08:26:55.809Z,67.98
2022-10-19T08:31:57.658Z,67.12
2022-10-19T08:37:06.755Z,66.62
2022-10-19T08:42:20.268Z,66.42
2022-10-19T08:47:33.932Z,65.25
2022-10-19T08:52:36.929Z,65.23
2022-10-19T08:57:47.797Z,64.78
2022-10-19T09:02:57.079Z,66.14
2022-10-19T09:07:59.506Z,66.16
2022-10-19T09:13:07.638Z,65.50
2022-10-19T09:18:14.910Z,65.25
2022-10-19T09:23:44.248Z,65.11
2022-10-19T09:28:58.706Z,64.19
2022-10-19T09:34:05.860Z,64.40
2022-10-19T09:39:12.488Z,63.35
2022-10-19T09:44:14.330Z,63.52
2022-10-19T09:49:16.198Z,62.92
2022-10-19T09:54:39.600Z,61.25
2022-10-19T09:59:42.846Z,61.79
2022-10-19T10:05:07.092Z,60.69
2022-10-19T10:10:30.556Z,60.77
2022-10-19T10:15:57.229Z,60.02
2022-10-19T10:21:25.813Z,58.23
2022-10-19T10:26:28.547Z,58.48
2022-10-19T10:31:31.119Z,58.42
2022-10-19T10:36:34.022Z,58.04
2022-10-19T10:41:41.028Z,58.28
2022-10-19T10:47:03.494Z,57.50
2022-10-19T10:52:10.297Z,58.67
2022-10-19T10:57:20.566Z,58.98
2022-10-19T11:02:30.589Z,58.76
2022-10-19T11:07:35.283Z,59.55
2022-10-19T11:12:46.601Z,58.48
2022-10-19T11:18:21.718Z,58.54
2022-10-19T11:23:44.580Z,58.62
2022-10-19T11:28:55.379Z,58.74
2022-10-19T11:34:07.108Z,58.28
2022-10-19T11:39:15.499Z,58.50
2022-10-19T11:44:37.631Z,57.19
2022-10-19T11:49:50.491Z,59.17
2022-10-19T11:55:32.078Z,58.38
2022-10-19T12:01:03.946Z,58.70
2022-10-19T12:06:36.498Z,58.19
2022-10-19T12:12:03.215Z,58.98
2022-10-19T12:17:34.254Z,58.59
2022-10-19T12:22:38.037Z,59.03
2022-10-19T12:27:41.728Z,58.58
2022-10-19T12:33:03.674Z,57.52
2022-10-19T12:38:47.982Z,57.45
2022-10-19T12:43:59.317Z,59.00
2022-10-19T12:49:29.384Z,57.56
2022-10-19T12:54:38.154Z,57.38
2022-10-19T12:59:40.055Z,57.80
2022-10-19T13:04:53.605Z,56.85
2022-10-19T13:10:05.717Z,57.24
2022-10-19T13:15:36.064Z,56.68
2022-10-19T13:26:07.543Z,56.96
2022-10-19T13:31:34.254Z,56.33
2022-10-19T13:36:39.461Z,56.63
2022-10-19T13:41:49.405Z,56.30
2022-10-19T13:47:23.082Z,55.49
2022-10-19T13:52:55.868Z,56.79
2022-10-19T13:58:17.225Z,56.47
2022-10-19T14:03:37.085Z,57.36
2022-10-19T14:09:05.068Z,57.45
2022-10-19T14:14:10.726Z,57.70
2022-10-19T14:19:27.511Z,57.21
2022-10-19T14:24:36.117Z,57.15
2022-10-19T14:29:47.876Z,57.97
2022-10-19T14:34:51.062Z,57.84
2022-10-19T14:40:02.012Z,57.67
2022-10-19T14:45:04.648Z,58.14
2022-10-19T14:50:08.595Z,58.38
2022-10-19T14:55:19.067Z,58.81
2022-10-19T15:00:22.462Z,59.00
2022-10-19T15:05:29.383Z,58.32
2022-10-19T15:10:45.825Z,58.41
2022-10-19T15:15:51.623Z,58.08
2022-10-19T15:21:13.163Z,58.26
2022-10-19T15:26:20.239Z,59.01
2022-10-19T15:31:29.989Z,59.09
2022-10-19T15:36:33.882Z,58.53
2022-10-19T15:41:39.681Z,58.51
2022-10-19T15:46:48.166Z,58.20
2022-10-19T15:51:50.699Z,58.61
2022-10-19T15:56:53.269Z,58.70
2022-10-19T16:01:56.163Z,58.58
2022-10-19T16:06:58.265Z,58.50
2022-10-19T16:12:00.031Z,58.75
2022-10-19T16:17:01.845Z,58.79
2022-10-19T16:22:03.774Z,59.49
2022-10-19T16:27:06.899Z,59.57
2022-10-19T16:32:09.220Z,60.07
2022-10-19T16:37:11.101Z,60.71
2022-10-19T16:42:12.965Z,60.97
2022-10-19T16:47:17.178Z,61.17
2022-10-19T16:52:19.034Z,61.79
2022-10-19T16:57:20.866Z,61.88
2022-10-19T17:02:23.881Z,61.75
2022-10-19T17:07:26.597Z,61.66
2022-10-19T17:12:28.460Z,61.61
2022-10-19T17:17:30.318Z,62.06
2022-10-19T17:22:32.199Z,61.85
2022-10-19T17:27:34.059Z,61.48
2022-10-19T17:32:36.142Z,61.66
2022-10-19T17:37:38.324Z,61.28
2022-10-19T17:42:40.309Z,61.48
2022-10-19T17:47:42.127Z,61.36
2022-10-19T17:52:43.917Z,61.40
2022-10-19T17:57:46.141Z,61.39
2022-10-19T18:02:49.366Z,61.82
2022-10-19T18:07:51.640Z,62.19
2022-10-19T18:12:53.549Z,62.45
2022-10-19T18:17:56.099Z,62.41
2022-10-19T18:22:57.938Z,63.32
2022-10-19T18:27:59.824Z,62.98
2022-10-19T18:33:01.855Z,63.45
2022-10-19T18:38:04.974Z,63.65
2022-10-19T18:43:06.979Z,63.98
2022-10-19T18:48:08.974Z,63.43
2022-10-19T18:53:10.830Z,63.41
2022-10-19T18:58:12.925Z,64.12
2022-10-19T19:03:14.750Z,64.37
2022-10-19T19:08:16.726Z,64.84
2022-10-19T19:13:18.779Z,64.64
2022-10-19T19:18:21.138Z,65.24
2022-10-19T19:23:22.926Z,65.45
2022-10-19T19:28:24.744Z,65.56
2022-10-19T19:33:26.586Z,65.84
2022-10-19T19:38:28.516Z,66.37
2022-10-19T19:43:33.012Z,66.62
2022-10-19T19:48:35.486Z,66.66
2022-10-19T19:53:38.218Z,66.77
2022-10-19T19:58:43.012Z,66.84
2022-10-19T20:03:47.248Z,66.85
2022-10-19T20:08:49.392Z,67.08
2022-10-19T20:13:52.223Z,67.01
2022-10-19T20:19:00.253Z,66.73
2022-10-19T20:24:02.327Z,66.57
2022-10-19T20:29:05.331Z,66.74
2022-10-19T20:34:09.177Z,66.71
2022-10-19T20:39:11.013Z,66.86
2022-10-19T20:44:12.898Z,66.90
2022-10-19T20:49:14.798Z,67.06
2022-10-19T20:54:16.831Z,67.16
2022-10-19T20:59:21.791Z,67.28
2022-10-19T21:04:25.059Z,67.53
2022-10-19T21:09:27.189Z,67.42
2022-10-19T21:14:30.279Z,67.41
2022-10-19T21:19:32.239Z,67.65
2022-10-19T21:24:36.159Z,67.85
2022-10-19T21:29:38.174Z,67.92
2022-10-19T21:34:39.922Z,67.81
2022-10-19T21:39:41.755Z,68.04
2022-10-19T21:44:43.614Z,68.14
2022-10-19T21:49:45.466Z,68.21
2022-10-19T21:54:47.445Z,68.55
2022-10-19T21:59:49.304Z,68.73
2022-10-19T22:04:51.155Z,68.81
2022-10-19T22:09:53.242Z,68.53
2022-10-19T22:14:55.185Z,68.87
2022-10-19T22:19:57.045Z,68.62
2022-10-19T22:24:58.782Z,68.35
2022-10-19T22:30:00.565Z,68.54
2022-10-19T22:35:02.394Z,68.70
2022-10-19T22:40:04.594Z,68.54
2022-10-19T22:45:07.080Z,68.41
2022-10-19T22:50:11.959Z,68.33
2022-10-19T22:55:13.931Z,68.63
2022-10-19T23:00:15.921Z,68.82
2022-10-19T23:05:17.740Z,69.11
2022-10-19T23:10:19.556Z,69.11
2022-10-19T23:15:22.008Z,69.43
2022-10-19T23:20:23.748Z,69.30
2022-10-19T23:25:25.597Z,69.33
2022-10-19T23:30:27.410Z,69.10
2022-10-19T23:35:29.154Z,69.09
2022-10-19T23:40:30.856Z,69.26
2022-10-19T23:45:32.817Z,69.42
2022-10-19T23:50:34.528Z,69.37
2022-10-19T23:55:36.370Z,69.32
